sensor_id;sensor_type;location;lat;lon;timestamp;pressure;altitude;pressure_sealevel;temperature
79495;BMP180;68951;53.130;18.104;2023-04-03T00:01:04;102092.80;;;
79495;BMP180;68951;53.130;18.104;2023-04-03T00:03:31;102094.20;;;
79495;BMP180;68951;53.130;18.104;2023-04-03T00:05:59;102098.20;;;
79495;BMP180;68951;53.130;18.104;2023-04-03T00:08:26;102097.80;;;
79495;BMP180;68951;53.130;18.104;2023-04-03T00:10:52;102094.20;;;
79495;BMP180;68951;53.130;18.104;2023-04-03T00:13:19;102092.20;;;
79495;BMP180;68951;53.130;18.104;2023-04-03T00:15:46;102089.60;;;
79495;BMP180;68951;53.130;18.104;2023-04-03T00:18:13;102093.40;;;
79495;BMP180;68951;53.130;18.104;2023-04-03T00:20:41;102093.00;;;
79495;BMP180;68951;53.130;18.104;2023-04-03T00:23:08;102089.20;;;
79495;BMP180;68951;53.130;18.104;2023-04-03T00:25:36;102090.00;;;
79495;BMP180;68951;53.130;18.104;2023-04-03T00:28:04;102089.60;;;
79495;BMP180;68951;53.130;18.104;2023-04-03T00:30:32;102091.40;;;
79495;BMP180;68951;53.130;18.104;2023-04-03T00:32:59;102088.60;;;
79495;BMP180;68951;53.130;18.104;2023-04-03T00:35:28;102092.60;;;
79495;BMP180;68951;53.130;18.104;2023-04-03T00:37:56;102087.60;;;
79495;BMP180;68951;53.130;18.104;2023-04-03T00:40:25;102086.80;;;
79495;BMP180;68951;53.130;18.104;2023-04-03T00:42:59;102086.60;;;
79495;BMP180;68951;53.130;18.104;2023-04-03T00:45:39;102083.60;;;
79495;BMP180;68951;53.130;18.104;2023-04-03T00:48:11;102088.80;;;
79495;BMP180;68951;53.130;18.104;2023-04-03T00:50:41;102086.40;;;
79495;BMP180;68951;53.130;18.104;2023-04-03T00:53:17;102088.60;;;
79495;BMP180;68951;53.130;18.104;2023-04-03T00:55:47;102088.00;;;
79495;BMP180;68951;53.130;18.104;2023-04-03T00:58:17;102096.00;;;
79495;BMP180;68951;53.130;18.104;2023-04-03T01:00:52;102092.60;;;
79495;BMP180;68951;53.130;18.104;2023-04-03T01:03:23;102092.20;;;
79495;BMP180;68951;53.130;18.104;2023-04-03T01:05:50;102090.40;;;
79495;BMP180;68951;53.130;18.104;2023-04-03T01:08:18;102092.40;;;
79495;BMP180;68951;53.130;18.104;2023-04-03T01:10:44;102085.40;;;
79495;BMP180;68951;53.130;18.104;2023-04-03T01:13:30;102087.20;;;
79495;BMP180;68951;53.130;18.104;2023-04-03T01:16:02;102089.60;;;
79495;BMP180;68951;53.130;18.104;2023-04-03T01:18:32;102089.60;;;
79495;BMP180;68951;53.130;18.104;2023-04-03T01:24:03;102088.80;;;
79495;BMP180;68951;53.130;18.104;2023-04-03T01:26:33;102090.00;;;
79495;BMP180;68951;53.130;18.104;2023-04-03T01:29:01;102095.20;;;
79495;BMP180;68951;53.130;18.104;2023-04-03T01:31:53;102096.80;;;
79495;BMP180;68951;53.130;18.104;2023-04-03T01:34:20;102100.20;;;
79495;BMP180;68951;53.130;18.104;2023-04-03T01:36:47;102102.00;;;
79495;BMP180;68951;53.130;18.104;2023-04-03T01:39:14;102100.60;;;
79495;BMP180;68951;53.130;18.104;2023-04-03T01:41:41;102099.40;;;
79495;BMP180;68951;53.130;18.104;2023-04-03T01:44:09;102103.40;;;
79495;BMP180;68951;53.130;18.104;2023-04-03T01:46:36;102104.00;;;
79495;BMP180;68951;53.130;18.104;2023-04-03T01:49:04;102103.20;;;
79495;BMP180;68951;53.130;18.104;2023-04-03T01:51:32;102104.00;;;
79495;BMP180;68951;53.130;18.104;2023-04-03T01:53:59;102107.20;;;
79495;BMP180;68951;53.130;18.104;2023-04-03T01:56:26;102105.20;;;
79495;BMP180;68951;53.130;18.104;2023-04-03T01:58:53;102101.80;;;
79495;BMP180;68951;53.130;18.104;2023-04-03T02:01:20;102102.80;;;
79495;BMP180;68951;53.130;18.104;2023-04-03T02:03:47;102105.40;;;
79495;BMP180;68951;53.130;18.104;2023-04-03T02:06:14;102103.60;;;
79495;BMP180;68951;53.130;18.104;2023-04-03T02:08:41;102099.00;;;
79495;BMP180;68951;53.130;18.104;2023-04-03T02:11:08;102102.00;;;
79495;BMP180;68951;53.130;18.104;2023-04-03T02:13:35;102101.40;;;
79495;BMP180;68951;53.130;18.104;2023-04-03T02:16:11;102105.40;;;
79495;BMP180;68951;53.130;18.104;2023-04-03T02:18:39;102102.80;;;
79495;BMP180;68951;53.130;18.104;2023-04-03T02:21:06;102108.40;;;
79495;BMP180;68951;53.130;18.104;2023-04-03T02:23:33;102106.60;;;
79495;BMP180;68951;53.130;18.104;2023-04-03T02:26:10;102109.80;;;
79495;BMP180;68951;53.130;18.104;2023-04-03T02:28:38;102110.60;;;
79495;BMP180;68951;53.130;18.104;2023-04-03T02:31:05;102108.20;;;
79495;BMP180;68951;53.130;18.104;2023-04-03T02:33:36;102112.60;;;
79495;BMP180;68951;53.130;18.104;2023-04-03T02:36:05;102110.20;;;
79495;BMP180;68951;53.130;18.104;2023-04-03T02:38:33;102115.00;;;
79495;BMP180;68951;53.130;18.104;2023-04-03T02:41:11;102111.20;;;
79495;BMP180;68951;53.130;18.104;2023-04-03T02:43:39;102120.20;;;
79495;BMP180;68951;53.130;18.104;2023-04-03T02:46:06;102119.60;;;
79495;BMP180;68951;53.130;18.104;2023-04-03T02:48:34;102119.40;;;
79495;BMP180;68951;53.130;18.104;2023-04-03T02:51:02;102121.40;;;
79495;BMP180;68951;53.130;18.104;2023-04-03T02:53:29;102127.60;;;
79495;BMP180;68951;53.130;18.104;2023-04-03T02:55:55;102127.60;;;
79495;BMP180;68951;53.130;18.104;2023-04-03T02:58:22;102125.20;;;
79495;BMP180;68951;53.130;18.104;2023-04-03T03:00:49;102132.20;;;
79495;BMP180;68951;53.130;18.104;2023-04-03T03:03:16;102132.80;;;
79495;BMP180;68951;53.130;18.104;2023-04-03T03:05:43;102132.00;;;
79495;BMP180;68951;53.130;18.104;2023-04-03T03:08:09;102130.60;;;
79495;BMP180;68951;53.130;18.104;2023-04-03T03:10:36;102136.60;;;
79495;BMP180;68951;53.130;18.104;2023-04-03T03:13:03;102145.40;;;
79495;BMP180;68951;53.130;18.104;2023-04-03T03:15:30;102138.80;;;
79495;BMP180;68951;53.130;18.104;2023-04-03T03:17:57;102138.80;;;
79495;BMP180;68951;53.130;18.104;2023-04-03T03:20:24;102141.00;;;
79495;BMP180;68951;53.130;18.104;2023-04-03T03:22:51;102141.60;;;
79495;BMP180;68951;53.130;18.104;2023-04-03T03:25:18;102145.40;;;
79495;BMP180;68951;53.130;18.104;2023-04-03T03:27:44;102146.40;;;
79495;BMP180;68951;53.130;18.104;2023-04-03T03:30:12;102145.20;;;
79495;BMP180;68951;53.130;18.104;2023-04-03T03:32:39;102150.40;;;
79495;BMP180;68951;53.130;18.104;2023-04-03T03:35:06;102149.00;;;
79495;BMP180;68951;53.130;18.104;2023-04-03T03:37:33;102145.00;;;
79495;BMP180;68951;53.130;18.104;2023-04-03T03:40:01;102152.60;;;
79495;BMP180;68951;53.130;18.104;2023-04-03T03:42:27;102153.60;;;
79495;BMP180;68951;53.130;18.104;2023-04-03T03:44:54;102157.40;;;
79495;BMP180;68951;53.130;18.104;2023-04-03T03:47:21;102155.80;;;
79495;BMP180;68951;53.130;18.104;2023-04-03T03:49:48;102158.00;;;
79495;BMP180;68951;53.130;18.104;2023-04-03T03:52:15;102161.40;;;
79495;BMP180;68951;53.130;18.104;2023-04-03T03:54:42;102165.60;;;
79495;BMP180;68951;53.130;18.104;2023-04-03T03:57:09;102165.40;;;
79495;BMP180;68951;53.130;18.104;2023-04-03T03:59:36;102168.80;;;
79495;BMP180;68951;53.130;18.104;2023-04-03T04:02:03;102172.80;;;
79495;BMP180;68951;53.130;18.104;2023-04-03T04:04:30;102177.00;;;
79495;BMP180;68951;53.130;18.104;2023-04-03T04:06:57;102181.40;;;
79495;BMP180;68951;53.130;18.104;2023-04-03T04:09:24;102184.00;;;
79495;BMP180;68951;53.130;18.104;2023-04-03T04:11:50;102181.20;;;
79495;BMP180;68951;53.130;18.104;2023-04-03T04:14:17;102182.00;;;
79495;BMP180;68951;53.130;18.104;2023-04-03T04:16:44;102186.40;;;
79495;BMP180;68951;53.130;18.104;2023-04-03T04:19:12;102185.60;;;
79495;BMP180;68951;53.130;18.104;2023-04-03T04:21:39;102188.40;;;
79495;BMP180;68951;53.130;18.104;2023-04-03T04:24:07;102187.20;;;
79495;BMP180;68951;53.130;18.104;2023-04-03T04:26:34;102187.20;;;
79495;BMP180;68951;53.130;18.104;2023-04-03T04:29:01;102188.40;;;
79495;BMP180;68951;53.130;18.104;2023-04-03T04:31:28;102188.20;;;
79495;BMP180;68951;53.130;18.104;2023-04-03T04:33:55;102186.60;;;
79495;BMP180;68951;53.130;18.104;2023-04-03T04:36:22;102193.00;;;
79495;BMP180;68951;53.130;18.104;2023-04-03T04:38:48;102194.40;;;
79495;BMP180;68951;53.130;18.104;2023-04-03T04:41:22;102191.20;;;
79495;BMP180;68951;53.130;18.104;2023-04-03T04:43:51;102191.00;;;
79495;BMP180;68951;53.130;18.104;2023-04-03T04:46:18;102196.60;;;
79495;BMP180;68951;53.130;18.104;2023-04-03T04:48:45;102197.80;;;
79495;BMP180;68951;53.130;18.104;2023-04-03T04:51:12;102201.20;;;
79495;BMP180;68951;53.130;18.104;2023-04-03T04:53:39;102202.40;;;
79495;BMP180;68951;53.130;18.104;2023-04-03T04:56:06;102199.60;;;
79495;BMP180;68951;53.130;18.104;2023-04-03T04:58:34;102209.00;;;
79495;BMP180;68951;53.130;18.104;2023-04-03T05:01:03;102213.60;;;
79495;BMP180;68951;53.130;18.104;2023-04-03T05:03:31;102217.00;;;
79495;BMP180;68951;53.130;18.104;2023-04-03T05:05:58;102219.60;;;
79495;BMP180;68951;53.130;18.104;2023-04-03T05:08:25;102224.40;;;
79495;BMP180;68951;53.130;18.104;2023-04-03T05:10:52;102224.00;;;
79495;BMP180;68951;53.130;18.104;2023-04-03T05:13:20;102226.40;;;
79495;BMP180;68951;53.130;18.104;2023-04-03T05:15:47;102220.20;;;
79495;BMP180;68951;53.130;18.104;2023-04-03T05:18:14;102229.40;;;
79495;BMP180;68951;53.130;18.104;2023-04-03T05:20:41;102227.00;;;
79495;BMP180;68951;53.130;18.104;2023-04-03T05:23:10;102228.40;;;
79495;BMP180;68951;53.130;18.104;2023-04-03T05:25:38;102228.80;;;
79495;BMP180;68951;53.130;18.104;2023-04-03T05:28:06;102224.80;;;
79495;BMP180;68951;53.130;18.104;2023-04-03T05:30:33;102230.60;;;
79495;BMP180;68951;53.130;18.104;2023-04-03T05:33:01;102228.00;;;
79495;BMP180;68951;53.130;18.104;2023-04-03T05:35:27;102231.80;;;
79495;BMP180;68951;53.130;18.104;2023-04-03T05:37:54;102225.20;;;
79495;BMP180;68951;53.130;18.104;2023-04-03T05:40:21;102230.20;;;
79495;BMP180;68951;53.130;18.104;2023-04-03T05:42:48;102228.40;;;
79495;BMP180;68951;53.130;18.104;2023-04-03T05:45:15;102225.80;;;
79495;BMP180;68951;53.130;18.104;2023-04-03T05:47:42;102227.20;;;
79495;BMP180;68951;53.130;18.104;2023-04-03T05:50:09;102226.40;;;
79495;BMP180;68951;53.130;18.104;2023-04-03T05:52:40;102231.20;;;
79495;BMP180;68951;53.130;18.104;2023-04-03T05:55:09;102233.20;;;
79495;BMP180;68951;53.130;18.104;2023-04-03T05:57:36;102229.00;;;
79495;BMP180;68951;53.130;18.104;2023-04-03T06:00:11;102234.80;;;
79495;BMP180;68951;53.130;18.104;2023-04-03T06:02:39;102235.60;;;
79495;BMP180;68951;53.130;18.104;2023-04-03T06:05:06;102234.00;;;
79495;BMP180;68951;53.130;18.104;2023-04-03T06:07:34;102235.20;;;
79495;BMP180;68951;53.130;18.104;2023-04-03T06:10:03;102240.40;;;
79495;BMP180;68951;53.130;18.104;2023-04-03T06:12:30;102242.80;;;
79495;BMP180;68951;53.130;18.104;2023-04-03T06:14:58;102242.60;;;
79495;BMP180;68951;53.130;18.104;2023-04-03T06:17:25;102242.60;;;
79495;BMP180;68951;53.130;18.104;2023-04-03T06:19:53;102242.80;;;
79495;BMP180;68951;53.130;18.104;2023-04-03T06:22:20;102246.00;;;
79495;BMP180;68951;53.130;18.104;2023-04-03T06:24:47;102246.40;;;
79495;BMP180;68951;53.130;18.104;2023-04-03T06:27:15;102248.20;;;
79495;BMP180;68951;53.130;18.104;2023-04-03T06:29:42;102254.60;;;
79495;BMP180;68951;53.130;18.104;2023-04-03T06:32:10;102256.20;;;
79495;BMP180;68951;53.130;18.104;2023-04-03T06:34:37;102264.20;;;
79495;BMP180;68951;53.130;18.104;2023-04-03T06:37:04;102265.20;;;
79495;BMP180;68951;53.130;18.104;2023-04-03T06:39:32;102266.80;;;
79495;BMP180;68951;53.130;18.104;2023-04-03T06:41:59;102274.20;;;
79495;BMP180;68951;53.130;18.104;2023-04-03T06:44:26;102273.80;;;
79495;BMP180;68951;53.130;18.104;2023-04-03T06:46:53;102275.20;;;
79495;BMP180;68951;53.130;18.104;2023-04-03T06:49:20;102273.80;;;
79495;BMP180;68951;53.130;18.104;2023-04-03T06:51:48;102273.40;;;
79495;BMP180;68951;53.130;18.104;2023-04-03T06:54:15;102273.40;;;
79495;BMP180;68951;53.130;18.104;2023-04-03T06:56:42;102278.20;;;
79495;BMP180;68951;53.130;18.104;2023-04-03T06:59:10;102284.60;;;
79495;BMP180;68951;53.130;18.104;2023-04-03T07:01:39;102289.60;;;
79495;BMP180;68951;53.130;18.104;2023-04-03T07:04:08;102297.20;;;
79495;BMP180;68951;53.130;18.104;2023-04-03T07:06:35;102295.60;;;
79495;BMP180;68951;53.130;18.104;2023-04-03T07:09:02;102294.20;;;
79495;BMP180;68951;53.130;18.104;2023-04-03T07:11:29;102296.60;;;
79495;BMP180;68951;53.130;18.104;2023-04-03T07:13:56;102301.80;;;
79495;BMP180;68951;53.130;18.104;2023-04-03T07:16:23;102304.20;;;
79495;BMP180;68951;53.130;18.104;2023-04-03T07:18:50;102309.00;;;
79495;BMP180;68951;53.130;18.104;2023-04-03T07:21:17;102310.60;;;
79495;BMP180;68951;53.130;18.104;2023-04-03T07:23:44;102308.00;;;
79495;BMP180;68951;53.130;18.104;2023-04-03T07:26:11;102314.80;;;
79495;BMP180;68951;53.130;18.104;2023-04-03T07:28:38;102329.80;;;
79495;BMP180;68951;53.130;18.104;2023-04-03T07:31:11;102349.40;;;
79495;BMP180;68951;53.130;18.104;2023-04-03T07:33:41;102342.40;;;
79495;BMP180;68951;53.130;18.104;2023-04-03T07:36:09;102339.20;;;
79495;BMP180;68951;53.130;18.104;2023-04-03T07:38:37;102333.00;;;
79495;BMP180;68951;53.130;18.104;2023-04-03T07:41:04;102324.00;;;
79495;BMP180;68951;53.130;18.104;2023-04-03T07:43:31;102329.80;;;
79495;BMP180;68951;53.130;18.104;2023-04-03T07:45:58;102329.20;;;
79495;BMP180;68951;53.130;18.104;2023-04-03T07:48:26;102326.80;;;
79495;BMP180;68951;53.130;18.104;2023-04-03T07:50:53;102333.40;;;
79495;BMP180;68951;53.130;18.104;2023-04-03T07:53:20;102330.60;;;
79495;BMP180;68951;53.130;18.104;2023-04-03T07:55:48;102332.40;;;
79495;BMP180;68951;53.130;18.104;2023-04-03T07:58:18;102331.80;;;
79495;BMP180;68951;53.130;18.104;2023-04-03T08:00:46;102334.60;;;
79495;BMP180;68951;53.130;18.104;2023-04-03T08:03:14;102337.20;;;
79495;BMP180;68951;53.130;18.104;2023-04-03T08:05:48;102330.00;;;
79495;BMP180;68951;53.130;18.104;2023-04-03T08:08:19;102334.00;;;
79495;BMP180;68951;53.130;18.104;2023-04-03T08:10:54;102329.40;;;
79495;BMP180;68951;53.130;18.104;2023-04-03T08:13:22;102333.00;;;
79495;BMP180;68951;53.130;18.104;2023-04-03T08:15:49;102332.40;;;
79495;BMP180;68951;53.130;18.104;2023-04-03T08:18:16;102337.40;;;
79495;BMP180;68951;53.130;18.104;2023-04-03T08:20:44;102339.60;;;
79495;BMP180;68951;53.130;18.104;2023-04-03T08:23:11;102331.20;;;
79495;BMP180;68951;53.130;18.104;2023-04-03T08:25:40;102337.40;;;
79495;BMP180;68951;53.130;18.104;2023-04-03T08:28:08;102334.60;;;
79495;BMP180;68951;53.130;18.104;2023-04-03T08:30:35;102333.60;;;
79495;BMP180;68951;53.130;18.104;2023-04-03T08:33:03;102334.20;;;
79495;BMP180;68951;53.130;18.104;2023-04-03T08:35:30;102339.20;;;
79495;BMP180;68951;53.130;18.104;2023-04-03T08:37:57;102334.80;;;
79495;BMP180;68951;53.130;18.104;2023-04-03T08:40:24;102336.20;;;
79495;BMP180;68951;53.130;18.104;2023-04-03T08:43:25;102342.40;;;
79495;BMP180;68951;53.130;18.104;2023-04-03T08:46:01;102345.00;;;
79495;BMP180;68951;53.130;18.104;2023-04-03T08:48:43;102347.60;;;
79495;BMP180;68951;53.130;18.104;2023-04-03T08:51:17;102346.20;;;
79495;BMP180;68951;53.130;18.104;2023-04-03T08:53:58;102345.60;;;
79495;BMP180;68951;53.130;18.104;2023-04-03T08:56:31;102355.60;;;
79495;BMP180;68951;53.130;18.104;2023-04-03T08:59:06;102346.40;;;
79495;BMP180;68951;53.130;18.104;2023-04-03T09:01:37;102348.80;;;
79495;BMP180;68951;53.130;18.104;2023-04-03T09:04:14;102355.80;;;
79495;BMP180;68951;53.130;18.104;2023-04-03T09:06:50;102356.00;;;
79495;BMP180;68951;53.130;18.104;2023-04-03T09:09:45;102353.00;;;
79495;BMP180;68951;53.130;18.104;2023-04-03T09:12:24;102353.40;;;
79495;BMP180;68951;53.130;18.104;2023-04-03T09:15:06;102345.00;;;
79495;BMP180;68951;53.130;18.104;2023-04-03T09:23:42;102356.20;;;
79495;BMP180;68951;53.130;18.104;2023-04-03T09:26:20;102358.40;;;
79495;BMP180;68951;53.130;18.104;2023-04-03T09:28:48;102357.80;;;
79495;BMP180;68951;53.130;18.104;2023-04-03T09:31:21;102358.80;;;
79495;BMP180;68951;53.130;18.104;2023-04-03T09:33:53;102349.80;;;
79495;BMP180;68951;53.130;18.104;2023-04-03T09:36:48;102354.20;;;
79495;BMP180;68951;53.130;18.104;2023-04-03T09:39:19;102370.00;;;
79495;BMP180;68951;53.130;18.104;2023-04-03T09:42:23;102366.60;;;
79495;BMP180;68951;53.130;18.104;2023-04-03T09:50:36;102370.00;;;
79495;BMP180;68951;53.130;18.104;2023-04-03T09:53:29;102372.00;;;
79495;BMP180;68951;53.130;18.104;2023-04-03T09:55:57;102367.80;;;
79495;BMP180;68951;53.130;18.104;2023-04-03T09:58:30;102372.80;;;
79495;BMP180;68951;53.130;18.104;2023-04-03T10:01:00;102374.60;;;
79495;BMP180;68951;53.130;18.104;2023-04-03T10:03:32;102365.00;;;
79495;BMP180;68951;53.130;18.104;2023-04-03T10:05:59;102357.20;;;
79495;BMP180;68951;53.130;18.104;2023-04-03T10:08:34;102364.80;;;
79495;BMP180;68951;53.130;18.104;2023-04-03T10:11:12;102360.60;;;
79495;BMP180;68951;53.130;18.104;2023-04-03T10:13:58;102355.60;;;
79495;BMP180;68951;53.130;18.104;2023-04-03T10:16:36;102368.00;;;
79495;BMP180;68951;53.130;18.104;2023-04-03T10:19:32;102360.20;;;
79495;BMP180;68951;53.130;18.104;2023-04-03T10:24:56;102361.80;;;
79495;BMP180;68951;53.130;18.104;2023-04-03T10:27:39;102354.20;;;
79495;BMP180;68951;53.130;18.104;2023-04-03T10:33:20;102354.00;;;
79495;BMP180;68951;53.130;18.104;2023-04-03T10:36:06;102359.60;;;
79495;BMP180;68951;53.130;18.104;2023-04-03T10:41:28;102366.00;;;
79495;BMP180;68951;53.130;18.104;2023-04-03T10:44:31;102364.20;;;
79495;BMP180;68951;53.130;18.104;2023-04-03T10:47:29;102355.60;;;
79495;BMP180;68951;53.130;18.104;2023-04-03T10:50:58;102357.80;;;
79495;BMP180;68951;53.130;18.104;2023-04-03T10:58:57;102362.00;;;
79495;BMP180;68951;53.130;18.104;2023-04-03T11:01:33;102358.00;;;
79495;BMP180;68951;53.130;18.104;2023-04-03T11:04:05;102356.00;;;
79495;BMP180;68951;53.130;18.104;2023-04-03T11:07:08;102356.20;;;
79495;BMP180;68951;53.130;18.104;2023-04-03T11:09:42;102353.80;;;
79495;BMP180;68951;53.130;18.104;2023-04-03T11:12:21;102357.00;;;
79495;BMP180;68951;53.130;18.104;2023-04-03T11:14:53;102354.60;;;
79495;BMP180;68951;53.130;18.104;2023-04-03T11:17:26;102348.00;;;
79495;BMP180;68951;53.130;18.104;2023-04-03T11:22:36;102353.40;;;
79495;BMP180;68951;53.130;18.104;2023-04-03T11:25:19;102353.60;;;
79495;BMP180;68951;53.130;18.104;2023-04-03T11:28:09;102343.00;;;
79495;BMP180;68951;53.130;18.104;2023-04-03T11:36:10;102332.40;;;
79495;BMP180;68951;53.130;18.104;2023-04-03T11:38:43;102331.20;;;
79495;BMP180;68951;53.130;18.104;2023-04-03T11:41:13;102338.00;;;
79495;BMP180;68951;53.130;18.104;2023-04-03T11:44:11;102344.20;;;
79495;BMP180;68951;53.130;18.104;2023-04-03T11:46:56;102343.60;;;
79495;BMP180;68951;53.130;18.104;2023-04-03T11:49:57;102333.80;;;
79495;BMP180;68951;53.130;18.104;2023-04-03T12:19:37;102333.80;;;
79495;BMP180;68951;53.130;18.104;2023-04-03T12:22:21;102330.80;;;
79495;BMP180;68951;53.130;18.104;2023-04-03T12:24:51;102328.00;;;
79495;BMP180;68951;53.130;18.104;2023-04-03T12:27:34;102326.80;;;
79495;BMP180;68951;53.130;18.104;2023-04-03T12:35:57;102312.20;;;
79495;BMP180;68951;53.130;18.104;2023-04-03T12:39:10;102312.60;;;
79495;BMP180;68951;53.130;18.104;2023-04-03T12:42:28;102317.80;;;
79495;BMP180;68951;53.130;18.104;2023-04-03T12:47:34;102317.60;;;
79495;BMP180;68951;53.130;18.104;2023-04-03T12:50:18;102311.20;;;
79495;BMP180;68951;53.130;18.104;2023-04-03T12:55:39;102313.60;;;
79495;BMP180;68951;53.130;18.104;2023-04-03T12:58:22;102300.60;;;
79495;BMP180;68951;53.130;18.104;2023-04-03T13:01:22;102307.20;;;
79495;BMP180;68951;53.130;18.104;2023-04-03T13:03:55;102306.00;;;
79495;BMP180;68951;53.130;18.104;2023-04-03T13:06:54;102312.40;;;
79495;BMP180;68951;53.130;18.104;2023-04-03T13:09:28;102311.20;;;
79495;BMP180;68951;53.130;18.104;2023-04-03T13:12:10;102310.60;;;
79495;BMP180;68951;53.130;18.104;2023-04-03T13:14:39;102310.20;;;
79495;BMP180;68951;53.130;18.104;2023-04-03T13:17:15;102313.40;;;
79495;BMP180;68951;53.130;18.104;2023-04-03T13:19:44;102301.80;;;
79495;BMP180;68951;53.130;18.104;2023-04-03T13:22:48;102310.00;;;
79495;BMP180;68951;53.130;18.104;2023-04-03T13:25:20;102310.60;;;
79495;BMP180;68951;53.130;18.104;2023-04-03T13:27:47;102302.80;;;
79495;BMP180;68951;53.130;18.104;2023-04-03T13:32:49;102310.20;;;
79495;BMP180;68951;53.130;18.104;2023-04-03T13:35:33;102297.00;;;
79495;BMP180;68951;53.130;18.104;2023-04-03T13:38:22;102300.60;;;
79495;BMP180;68951;53.130;18.104;2023-04-03T13:41:00;102291.20;;;
79495;BMP180;68951;53.130;18.104;2023-04-03T13:43:34;102280.20;;;
79495;BMP180;68951;53.130;18.104;2023-04-03T13:46:28;102283.00;;;
79495;BMP180;68951;53.130;18.104;2023-04-03T13:48:56;102296.40;;;
79495;BMP180;68951;53.130;18.104;2023-04-03T13:51:29;102303.80;;;
79495;BMP180;68951;53.130;18.104;2023-04-03T13:54:15;102304.60;;;
79495;BMP180;68951;53.130;18.104;2023-04-03T13:56:43;102302.60;;;
79495;BMP180;68951;53.130;18.104;2023-04-03T14:04:28;102294.60;;;
79495;BMP180;68951;53.130;18.104;2023-04-03T14:06:57;102292.80;;;
79495;BMP180;68951;53.130;18.104;2023-04-03T14:09:27;102283.80;;;
79495;BMP180;68951;53.130;18.104;2023-04-03T14:12:08;102279.60;;;
79495;BMP180;68951;53.130;18.104;2023-04-03T14:14:39;102278.60;;;
79495;BMP180;68951;53.130;18.104;2023-04-03T14:17:18;102289.80;;;
79495;BMP180;68951;53.130;18.104;2023-04-03T14:19:46;102280.40;;;
79495;BMP180;68951;53.130;18.104;2023-04-03T14:22:29;102288.80;;;
79495;BMP180;68951;53.130;18.104;2023-04-03T14:24:57;102286.00;;;
79495;BMP180;68951;53.130;18.104;2023-04-03T14:27:36;102292.40;;;
79495;BMP180;68951;53.130;18.104;2023-04-03T14:30:11;102289.40;;;
79495;BMP180;68951;53.130;18.104;2023-04-03T14:32:39;102293.40;;;
79495;BMP180;68951;53.130;18.104;2023-04-03T14:35:07;102290.60;;;
79495;BMP180;68951;53.130;18.104;2023-04-03T14:37:34;102289.00;;;
79495;BMP180;68951;53.130;18.104;2023-04-03T14:40:04;102285.20;;;
79495;BMP180;68951;53.130;18.104;2023-04-03T14:42:36;102291.00;;;
79495;BMP180;68951;53.130;18.104;2023-04-03T14:45:08;102284.80;;;
79495;BMP180;68951;53.130;18.104;2023-04-03T14:47:44;102285.40;;;
79495;BMP180;68951;53.130;18.104;2023-04-03T14:50:25;102286.40;;;
79495;BMP180;68951;53.130;18.104;2023-04-03T14:52:57;102283.00;;;
79495;BMP180;68951;53.130;18.104;2023-04-03T14:55:31;102282.40;;;
79495;BMP180;68951;53.130;18.104;2023-04-03T14:57:58;102286.00;;;
79495;BMP180;68951;53.130;18.104;2023-04-03T15:00:25;102291.40;;;
79495;BMP180;68951;53.130;18.104;2023-04-03T15:02:52;102288.60;;;
79495;BMP180;68951;53.130;18.104;2023-04-03T15:05:19;102288.00;;;
79495;BMP180;68951;53.130;18.104;2023-04-03T15:07:55;102286.40;;;
79495;BMP180;68951;53.130;18.104;2023-04-03T15:10:29;102285.00;;;
79495;BMP180;68951;53.130;18.104;2023-04-03T15:12:57;102280.80;;;
79495;BMP180;68951;53.130;18.104;2023-04-03T15:15:29;102282.00;;;
79495;BMP180;68951;53.130;18.104;2023-04-03T15:17:57;102281.40;;;
79495;BMP180;68951;53.130;18.104;2023-04-03T15:20:27;102288.00;;;
79495;BMP180;68951;53.130;18.104;2023-04-03T15:22:54;102290.00;;;
79495;BMP180;68951;53.130;18.104;2023-04-03T15:25:24;102287.40;;;
79495;BMP180;68951;53.130;18.104;2023-04-03T15:27:57;102284.80;;;
79495;BMP180;68951;53.130;18.104;2023-04-03T15:30:24;102285.20;;;
79495;BMP180;68951;53.130;18.104;2023-04-03T15:32:51;102287.40;;;
79495;BMP180;68951;53.130;18.104;2023-04-03T15:35:20;102283.40;;;
79495;BMP180;68951;53.130;18.104;2023-04-03T15:37:47;102288.20;;;
79495;BMP180;68951;53.130;18.104;2023-04-03T15:40:15;102286.60;;;
79495;BMP180;68951;53.130;18.104;2023-04-03T15:42:42;102290.00;;;
79495;BMP180;68951;53.130;18.104;2023-04-03T15:45:09;102291.80;;;
79495;BMP180;68951;53.130;18.104;2023-04-03T15:47:37;102289.20;;;
79495;BMP180;68951;53.130;18.104;2023-04-03T15:50:05;102290.80;;;
79495;BMP180;68951;53.130;18.104;2023-04-03T15:52:34;102287.40;;;
79495;BMP180;68951;53.130;18.104;2023-04-03T15:55:02;102286.00;;;
79495;BMP180;68951;53.130;18.104;2023-04-03T15:57:29;102290.20;;;
79495;BMP180;68951;53.130;18.104;2023-04-03T15:59:56;102289.20;;;
79495;BMP180;68951;53.130;18.104;2023-04-03T16:02:23;102288.60;;;
79495;BMP180;68951;53.130;18.104;2023-04-03T16:04:55;102283.00;;;
79495;BMP180;68951;53.130;18.104;2023-04-03T16:07:22;102278.00;;;
79495;BMP180;68951;53.130;18.104;2023-04-03T16:09:48;102280.00;;;
79495;BMP180;68951;53.130;18.104;2023-04-03T16:12:15;102283.40;;;
79495;BMP180;68951;53.130;18.104;2023-04-03T16:14:42;102280.20;;;
79495;BMP180;68951;53.130;18.104;2023-04-03T16:17:09;102283.40;;;
79495;BMP180;68951;53.130;18.104;2023-04-03T16:19:36;102278.20;;;
79495;BMP180;68951;53.130;18.104;2023-04-03T16:22:03;102281.40;;;
79495;BMP180;68951;53.130;18.104;2023-04-03T16:24:31;102282.60;;;
79495;BMP180;68951;53.130;18.104;2023-04-03T16:26:58;102284.80;;;
79495;BMP180;68951;53.130;18.104;2023-04-03T16:29:25;102287.20;;;
79495;BMP180;68951;53.130;18.104;2023-04-03T16:31:52;102285.60;;;
79495;BMP180;68951;53.130;18.104;2023-04-03T16:34:19;102289.60;;;
79495;BMP180;68951;53.130;18.104;2023-04-03T16:36:47;102291.00;;;